createdAt,value
2023-04-13T00:01:11.474Z,6.77
2023-04-13T00:03:39.571Z,5.33
2023-04-13T00:06:10.730Z,6.10
2023-04-13T00:08:37.752Z,6.77
2023-04-13T00:11:05.698Z,8.00
2023-04-13T00:13:37.219Z,7.13
2023-04-13T00:16:05.873Z,7.47
2023-04-13T00:18:32.475Z,6.33
2023-04-13T00:21:00.218Z,7.20
2023-04-13T00:23:27.122Z,5.37
2023-04-13T00:25:53.849Z,6.67
2023-04-13T00:28:20.620Z,6.03
2023-04-13T00:30:47.425Z,10.00
2023-04-13T00:33:14.256Z,5.80
2023-04-13T00:35:41.717Z,5.27
2023-04-13T00:38:08.834Z,6.97
2023-04-13T00:40:37.809Z,6.23
2023-04-13T00:43:05.756Z,7.97
2023-04-13T00:45:37.877Z,6.03
2023-04-13T00:48:05.282Z,5.70
2023-04-13T00:50:34.064Z,6.00
2023-04-13T00:53:04.367Z,6.40
2023-04-13T00:55:31.050Z,6.47
2023-04-13T00:57:58.293Z,5.60
2023-04-13T01:00:26.477Z,5.90
2023-04-13T01:02:53.836Z,6.83
2023-04-13T01:05:21.466Z,5.77
2023-04-13T01:07:51.020Z,6.03
2023-04-13T01:10:42.264Z,6.33
2023-04-13T01:13:17.853Z,6.60
2023-04-13T01:15:52.287Z,7.80
2023-04-13T01:18:20.360Z,5.50
2023-04-13T01:20:47.998Z,6.30
2023-04-13T01:23:53.048Z,8.80
2023-04-13T01:26:22.541Z,7.03
2023-04-13T01:28:51.228Z,7.97
2023-04-13T01:31:18.025Z,7.77
2023-04-13T01:33:46.847Z,10.37
2023-04-13T01:36:14.560Z,9.40
2023-04-13T01:38:41.221Z,9.83
2023-04-13T01:41:08.718Z,7.83
2023-04-13T01:43:35.876Z,10.70
2023-04-13T01:46:15.623Z,8.97
2023-04-13T01:48:46.042Z,13.00
2023-04-13T01:51:34.375Z,12.63
2023-04-13T01:54:12.830Z,9.53
2023-04-13T01:56:40.474Z,10.50
2023-04-13T01:59:07.646Z,11.57
2023-04-13T02:01:37.667Z,11.50
2023-04-13T02:04:05.341Z,13.40
2023-04-13T02:06:32.065Z,14.20
2023-04-13T02:08:59.326Z,17.17
2023-04-13T02:11:27.455Z,13.40
2023-04-13T02:13:57.497Z,14.13
2023-04-13T02:16:25.238Z,15.80
2023-04-13T02:18:52.004Z,19.17
2023-04-13T02:21:18.742Z,17.80
2023-04-13T02:23:45.981Z,16.27
2023-04-13T02:26:13.803Z,15.40
2023-04-13T02:28:40.769Z,15.97
2023-04-13T02:31:07.490Z,16.53
2023-04-13T02:33:35.657Z,20.40
2023-04-13T02:36:04.145Z,16.50
2023-04-13T02:38:31.949Z,15.87
2023-04-13T02:40:59.402Z,14.73
2023-04-13T02:43:29.003Z,15.70
2023-04-13T02:45:56.294Z,16.10
2023-04-13T02:48:23.648Z,14.63
2023-04-13T02:50:51.116Z,16.50
2023-04-13T02:53:17.957Z,14.67
2023-04-13T02:55:44.692Z,15.60
2023-04-13T02:58:12.248Z,14.67
2023-04-13T03:00:39.813Z,14.57
2023-04-13T03:03:06.920Z,13.80
2023-04-13T03:05:33.886Z,13.63
2023-04-13T03:08:00.824Z,12.47
2023-04-13T03:10:27.561Z,12.53
2023-04-13T03:12:54.970Z,10.27
2023-04-13T03:15:21.884Z,12.73
2023-04-13T03:17:48.757Z,10.73
2023-04-13T03:20:16.949Z,11.23
2023-04-13T03:22:45.316Z,11.90
2023-04-13T03:25:12.668Z,10.83
2023-04-13T03:27:39.605Z,12.23
2023-04-13T03:30:07.602Z,12.40
2023-04-13T03:32:34.488Z,11.43
2023-04-13T03:35:01.319Z,11.50
2023-04-13T03:37:30.344Z,12.53
2023-04-13T03:39:58.392Z,12.10
2023-04-13T03:42:25.101Z,11.23
2023-04-13T03:44:51.769Z,14.83
2023-04-13T03:47:18.426Z,13.20
2023-04-13T03:49:45.064Z,12.60
2023-04-13T03:52:11.693Z,13.23
2023-04-13T03:54:40.259Z,13.17
2023-04-13T03:57:07.269Z,13.03
2023-04-13T03:59:34.081Z,10.83
2023-04-13T04:02:03.001Z,10.90
2023-04-13T04:04:29.875Z,11.07
2023-04-13T04:06:58.217Z,11.23
2023-04-13T04:09:25.612Z,13.20
2023-04-13T04:11:52.431Z,10.03
2023-04-13T04:14:20.425Z,9.60
2023-04-13T04:16:50.617Z,10.47
2023-04-13T04:19:17.312Z,10.63
2023-04-13T04:21:46.920Z,10.83
2023-04-13T04:24:23.528Z,7.43
2023-04-13T04:26:50.820Z,9.40
2023-04-13T04:29:17.858Z,10.17
2023-04-13T04:31:44.645Z,9.00
2023-04-13T04:34:11.665Z,13.20
2023-04-13T04:36:41.724Z,9.27
2023-04-13T04:39:10.052Z,13.50
2023-04-13T04:41:37.734Z,10.33
2023-04-13T04:44:08.220Z,11.43
2023-04-13T04:46:38.626Z,9.97
2023-04-13T04:49:05.369Z,9.23
2023-04-13T04:51:32.172Z,12.03
2023-04-13T04:54:01.590Z,11.50
2023-04-13T04:56:28.973Z,9.77
2023-04-13T04:58:55.716Z,10.47
2023-04-13T05:01:26.462Z,11.10
2023-04-13T05:03:53.570Z,9.77
2023-04-13T05:06:20.225Z,11.20
2023-04-13T05:08:47.013Z,13.33
2023-04-13T05:11:13.646Z,13.50
2023-04-13T05:13:40.456Z,14.37
2023-04-13T05:16:07.754Z,9.37
2023-04-13T05:18:43.857Z,10.83
2023-04-13T05:21:10.525Z,10.30
2023-04-13T05:23:37.335Z,10.97
2023-04-13T05:26:04.149Z,12.20
2023-04-13T05:28:30.852Z,12.57
2023-04-13T05:31:04.867Z,9.40
2023-04-13T05:33:31.706Z,10.75
2023-04-13T05:35:58.301Z,10.87
2023-04-13T05:38:24.921Z,10.93
2023-04-13T05:40:52.507Z,12.37
2023-04-13T05:43:20.470Z,11.50
2023-04-13T05:45:48.649Z,10.80
2023-04-13T05:48:15.775Z,11.97
2023-04-13T05:50:43.604Z,13.47
2023-04-13T05:53:10.714Z,12.03
2023-04-13T05:55:37.320Z,12.77
2023-04-13T05:58:03.985Z,12.93
2023-04-13T06:00:30.986Z,10.00
2023-04-13T06:02:59.533Z,14.23
2023-04-13T06:05:26.534Z,13.77
2023-04-13T06:07:53.912Z,14.63
2023-04-13T06:10:20.724Z,12.77
2023-04-13T06:12:48.721Z,13.17
2023-04-13T06:15:15.634Z,11.33
2023-04-13T06:17:42.334Z,12.33
2023-04-13T06:20:10.793Z,12.80
2023-04-13T06:22:40.431Z,13.03
2023-04-13T06:25:08.527Z,10.87
2023-04-13T06:27:35.172Z,10.73
2023-04-13T06:30:02.652Z,9.13
2023-04-13T06:32:29.635Z,11.07
2023-04-13T06:34:56.374Z,12.30
2023-04-13T06:37:23.665Z,8.47
2023-04-13T06:39:50.306Z,10.80
2023-04-13T06:42:18.792Z,11.10
2023-04-13T06:44:45.593Z,10.07
2023-04-13T06:47:12.392Z,8.87
2023-04-13T06:49:39.107Z,10.70
2023-04-13T06:52:06.441Z,9.93
2023-04-13T06:54:33.504Z,10.00
2023-04-13T06:57:02.086Z,9.20
2023-04-13T06:59:28.848Z,12.90
2023-04-13T07:01:55.805Z,8.63
2023-04-13T07:04:25.162Z,11.97
2023-04-13T07:06:54.085Z,7.90
2023-04-13T07:09:20.708Z,9.40
2023-04-13T07:11:47.355Z,7.93
2023-04-13T07:14:14.117Z,8.63
2023-04-13T07:16:40.990Z,8.87
2023-04-13T07:19:07.663Z,7.70
2023-04-13T07:21:35.352Z,8.93
2023-04-13T07:24:01.944Z,8.63
2023-04-13T07:26:28.665Z,8.60
2023-04-13T07:28:55.641Z,7.30
2023-04-13T07:31:22.783Z,9.27
2023-04-13T07:33:49.479Z,9.77
2023-04-13T07:36:16.354Z,5.43
2023-04-13T07:38:43.048Z,7.57
2023-04-13T07:41:09.699Z,7.17
2023-04-13T07:43:37.339Z,6.20
2023-04-13T07:46:11.844Z,8.47
2023-04-13T07:48:38.612Z,7.83
2023-04-13T07:51:05.669Z,8.47
2023-04-13T07:53:32.304Z,7.38
2023-04-13T07:55:58.965Z,9.07
2023-04-13T07:58:25.647Z,7.97
2023-04-13T08:00:52.354Z,7.35
2023-04-13T08:03:19.287Z,8.90
2023-04-13T08:05:47.259Z,8.50
2023-04-13T08:08:14.124Z,5.23
2023-04-13T08:10:40.901Z,7.77
2023-04-13T08:13:07.810Z,7.13
2023-04-13T08:15:34.506Z,8.27
2023-04-13T08:18:01.379Z,7.97
2023-04-13T08:20:29.379Z,5.95
2023-04-13T08:22:56.060Z,8.07
2023-04-13T08:25:22.765Z,6.75
2023-04-13T08:27:49.555Z,5.38
2023-04-13T08:30:16.327Z,6.95
2023-04-13T08:32:43.007Z,6.47
2023-04-13T08:35:10.428Z,9.07
2023-04-13T08:37:38.550Z,4.63
2023-04-13T08:40:07.823Z,3.97
2023-04-13T08:42:34.759Z,6.13
2023-04-13T08:45:03.684Z,5.35
2023-04-13T08:47:30.902Z,5.15
2023-04-13T08:49:59.560Z,5.05
2023-04-13T08:52:27.589Z,4.38
2023-04-13T08:54:56.181Z,4.05
2023-04-13T08:57:23.281Z,2.92
2023-04-13T08:59:52.544Z,5.95
2023-04-13T09:02:28.583Z,5.95
2023-04-13T09:04:59.779Z,4.60
2023-04-13T09:07:32.441Z,3.42
2023-04-13T09:10:00.447Z,2.67
2023-04-13T09:12:28.709Z,3.15
2023-04-13T09:14:55.668Z,2.75
2023-04-13T09:17:29.611Z,3.40
2023-04-13T09:19:57.466Z,2.28
2023-04-13T09:22:26.090Z,3.42
2023-04-13T09:24:52.900Z,3.40
2023-04-13T09:27:23.472Z,4.20
2023-04-13T09:29:51.692Z,4.20
2023-04-13T09:32:26.006Z,2.35
2023-04-13T09:35:08.143Z,3.83
2023-04-13T09:37:36.746Z,2.38
2023-04-13T09:40:14.463Z,3.33
2023-04-13T09:42:42.481Z,2.92
2023-04-13T09:45:09.636Z,3.45
2023-04-13T09:47:38.566Z,2.63
2023-04-13T09:50:05.765Z,2.35
2023-04-13T09:52:33.119Z,3.97
2023-04-13T09:54:59.771Z,2.28
2023-04-13T09:57:31.281Z,1.98
2023-04-13T10:00:01.347Z,2.05
2023-04-13T10:02:28.786Z,2.00
2023-04-13T10:04:55.983Z,3.45
2023-04-13T10:07:26.796Z,4.00
2023-04-13T10:09:54.144Z,2.33
2023-04-13T10:12:20.925Z,3.78
2023-04-13T10:14:48.881Z,1.40
2023-04-13T10:17:31.622Z,3.35
2023-04-13T10:20:01.865Z,2.97
2023-04-13T10:22:29.453Z,3.42
2023-04-13T10:24:56.183Z,2.35
2023-04-13T10:27:23.542Z,2.13
2023-04-13T10:29:50.445Z,1.63
2023-04-13T10:32:27.738Z,2.80
2023-04-13T10:34:55.011Z,2.88
2023-04-13T10:37:24.183Z,1.67
2023-04-13T10:40:06.314Z,1.45
2023-04-13T10:45:21.373Z,2.58
2023-04-13T10:47:48.396Z,1.25
2023-04-13T10:50:23.406Z,2.75
2023-04-13T10:53:00.752Z,2.83
2023-04-13T10:55:27.791Z,1.25
2023-04-13T10:57:56.481Z,2.92
2023-04-13T11:00:34.683Z,1.52
2023-04-13T11:03:06.595Z,1.20
2023-04-13T11:05:33.399Z,1.20
2023-04-13T11:08:00.105Z,2.15
2023-04-13T11:10:27.829Z,2.15
2023-04-13T11:12:56.597Z,1.55
2023-04-13T11:15:24.204Z,1.15
2023-04-13T11:17:54.808Z,2.42
2023-04-13T11:20:32.694Z,2.30
2023-04-13T11:23:02.333Z,1.42
2023-04-13T11:25:30.647Z,0.80
2023-04-13T11:27:59.174Z,1.98
2023-04-13T11:30:26.189Z,1.65
2023-04-13T11:32:56.327Z,2.72
2023-04-13T11:35:23.476Z,2.05
2023-04-13T11:37:52.986Z,1.45
2023-04-13T11:40:25.556Z,2.17
2023-04-13T11:42:56.945Z,4.22
2023-04-13T11:45:25.878Z,1.55
2023-04-13T11:47:53.680Z,2.35
2023-04-13T11:50:21.510Z,1.90
2023-04-13T11:52:49.996Z,1.40
2023-04-13T11:55:23.372Z,2.05
2023-04-13T12:00:24.664Z,1.73
2023-04-13T12:05:28.498Z,1.30
2023-04-13T12:07:56.310Z,1.88
2023-04-13T12:10:38.520Z,1.85
2023-04-13T12:13:20.304Z,3.78
2023-04-13T12:16:06.142Z,1.23
2023-04-13T12:18:46.252Z,1.92
2023-04-13T12:21:18.001Z,2.78
2023-04-13T12:24:11.543Z,1.25
2023-04-13T12:29:09.893Z,1.10
2023-04-13T12:31:37.905Z,1.55
2023-04-13T12:34:06.085Z,2.40
2023-04-13T12:36:36.209Z,13.32
2023-04-13T12:39:04.394Z,1.42
2023-04-13T12:41:32.358Z,2.55
2023-04-13T12:43:59.035Z,1.02
2023-04-13T12:46:26.759Z,1.15
2023-04-13T12:48:54.011Z,1.95
2023-04-13T12:51:20.791Z,1.98
2023-04-13T12:53:48.078Z,1.15
2023-04-13T12:56:16.048Z,1.80
2023-04-13T12:58:43.217Z,1.50
2023-04-13T13:01:10.576Z,1.35
2023-04-13T13:03:37.365Z,0.95
2023-04-13T13:06:05.561Z,1.90
2023-04-13T13:08:35.462Z,2.13
2023-04-13T13:11:04.441Z,1.73
2023-04-13T13:13:31.113Z,2.08
2023-04-13T13:15:57.756Z,0.70
2023-04-13T13:18:30.092Z,1.75
2023-04-13T13:21:02.101Z,1.70
2023-04-13T13:23:28.678Z,2.22
2023-04-13T13:26:17.383Z,1.65
2023-04-13T13:28:44.349Z,2.47
2023-04-13T13:31:12.796Z,3.05
2023-04-13T13:33:39.503Z,1.73
2023-04-13T13:36:07.608Z,2.00
2023-04-13T13:38:35.834Z,0.65
2023-04-13T13:41:04.944Z,1.95
2023-04-13T13:43:31.574Z,1.25
2023-04-13T13:45:58.452Z,2.25
2023-04-13T13:48:25.239Z,1.73
2023-04-13T13:50:51.892Z,1.02
2023-04-13T13:53:18.621Z,1.45
2023-04-13T13:55:45.340Z,3.15
2023-04-13T13:58:12.039Z,1.63
2023-04-13T14:00:39.507Z,1.30
2023-04-13T14:03:06.379Z,1.55
2023-04-13T14:05:33.242Z,1.25
2023-04-13T14:07:59.911Z,1.65
2023-04-13T14:10:26.669Z,1.42
2023-04-13T14:12:55.344Z,0.77
2023-04-13T14:15:22.476Z,1.30
2023-04-13T14:18:02.547Z,1.15
2023-04-13T14:20:38.624Z,1.55
2023-04-13T14:23:05.761Z,0.82
2023-04-13T14:25:32.549Z,2.38
2023-04-13T14:27:59.144Z,1.92
2023-04-13T14:30:27.894Z,1.73
2023-04-13T14:32:54.970Z,3.55
2023-04-13T14:35:21.805Z,0.98
2023-04-13T14:37:48.488Z,2.00
2023-04-13T14:40:17.328Z,1.83
2023-04-13T14:42:44.362Z,1.25
2023-04-13T14:45:12.397Z,1.42
2023-04-13T14:47:42.509Z,2.58
2023-04-13T14:50:09.946Z,1.02
2023-04-13T14:52:36.774Z,1.52
2023-04-13T14:55:04.543Z,1.65
2023-04-13T14:57:32.381Z,1.40
2023-04-13T14:59:59.008Z,1.77
2023-04-13T15:02:28.226Z,1.55
2023-04-13T15:04:55.891Z,1.48
2023-04-13T15:07:29.900Z,1.75
2023-04-13T15:09:58.083Z,0.65
2023-04-13T15:12:25.021Z,0.80
2023-04-13T15:14:51.639Z,1.25
2023-04-13T15:17:18.377Z,1.52
2023-04-13T15:19:44.997Z,1.20
2023-04-13T15:22:11.590Z,1.45
2023-04-13T15:24:38.209Z,1.52
2023-04-13T15:27:04.908Z,1.77
2023-04-13T15:29:35.515Z,1.98
2023-04-13T15:32:02.487Z,1.83
2023-04-13T15:34:30.566Z,2.38
2023-04-13T15:36:59.290Z,1.45
2023-04-13T15:39:26.065Z,3.58
2023-04-13T15:41:54.218Z,1.35
2023-04-13T15:44:21.346Z,1.55
2023-04-13T15:46:48.078Z,1.20
2023-04-13T15:49:14.874Z,0.98
2023-04-13T15:51:41.556Z,3.80
2023-04-13T15:54:08.191Z,1.88
2023-04-13T15:56:35.506Z,1.17
2023-04-13T15:59:04.217Z,3.70
2023-04-13T16:01:44.650Z,2.72
2023-04-13T16:04:11.919Z,2.47
2023-04-13T16:06:38.579Z,2.95
2023-04-13T16:09:05.473Z,5.88
2023-04-13T16:11:32.372Z,2.60
2023-04-13T16:14:07.148Z,2.78
2023-04-13T16:16:57.345Z,2.72
2023-04-13T16:19:24.161Z,2.60
2023-04-13T16:21:50.979Z,2.67
2023-04-13T16:24:18.710Z,3.08
2023-04-13T16:26:45.780Z,2.45
2023-04-13T16:29:12.414Z,2.28
2023-04-13T16:31:39.226Z,1.08
2023-04-13T16:34:22.130Z,1.75
2023-04-13T16:36:52.280Z,0.88
2023-04-13T16:39:18.959Z,1.27
2023-04-13T16:41:45.777Z,1.55
2023-04-13T16:44:12.438Z,2.83
2023-04-13T16:46:39.285Z,1.65
2023-04-13T16:49:06.223Z,3.55
2023-04-13T16:51:32.888Z,2.25
2023-04-13T16:54:00.206Z,2.13
2023-04-13T16:56:30.229Z,2.10
2023-04-13T16:58:56.981Z,3.67
2023-04-13T17:01:25.582Z,1.58
2023-04-13T17:03:53.338Z,2.85
2023-04-13T17:06:20.652Z,2.05
2023-04-13T17:08:47.480Z,1.75
2023-04-13T17:11:14.377Z,2.47
2023-04-13T17:13:41.392Z,1.75
2023-04-13T17:16:08.749Z,2.75
2023-04-13T17:18:35.492Z,1.30
2023-04-13T17:21:02.424Z,3.40
2023-04-13T17:23:29.148Z,1.90
2023-04-13T17:25:56.764Z,4.82
2023-04-13T17:28:23.969Z,3.65
2023-04-13T17:30:50.878Z,2.42
2023-04-13T17:33:17.603Z,3.72
2023-04-13T17:35:44.384Z,3.55
2023-04-13T17:38:11.089Z,4.93
2023-04-13T17:40:37.767Z,4.38
2023-04-13T17:43:07.443Z,3.00
2023-04-13T17:45:34.168Z,1.85
2023-04-13T17:48:01.078Z,1.92
2023-04-13T17:50:28.048Z,1.60
2023-04-13T17:52:54.846Z,1.63
2023-04-13T17:55:21.574Z,3.58
2023-04-13T17:57:48.214Z,2.47
2023-04-13T18:00:15.341Z,3.60
2023-04-13T18:02:42.305Z,1.55
2023-04-13T18:05:17.923Z,1.40
2023-04-13T18:07:44.862Z,1.45
2023-04-13T18:10:11.646Z,1.88
2023-04-13T18:12:41.459Z,1.20
2023-04-13T18:15:08.959Z,2.35
2023-04-13T18:17:36.841Z,2.20
2023-04-13T18:20:04.169Z,2.80
2023-04-13T18:22:32.191Z,1.85
2023-04-13T18:24:58.839Z,2.45
2023-04-13T18:27:27.314Z,1.23
2023-04-13T18:29:55.025Z,1.52
2023-04-13T18:32:22.734Z,2.08
2023-04-13T18:34:49.921Z,2.03
2023-04-13T18:37:16.773Z,1.27
2023-04-13T18:39:43.560Z,2.85
2023-04-13T18:42:10.455Z,2.73
2023-04-13T18:44:37.361Z,1.80
2023-04-13T18:47:04.213Z,2.33
2023-04-13T18:49:31.170Z,1.23
2023-04-13T18:51:57.941Z,1.10
2023-04-13T18:54:24.790Z,1.90
2023-04-13T18:56:51.473Z,0.83
2023-04-13T18:59:18.266Z,1.73
2023-04-13T19:01:45.866Z,2.20
2023-04-13T19:04:12.815Z,2.53
2023-04-13T19:06:39.889Z,2.77
2023-04-13T19:09:07.037Z,2.73
2023-04-13T19:11:47.863Z,2.53
2023-04-13T19:14:14.770Z,2.17
2023-04-13T19:16:41.639Z,1.63
2023-04-13T19:19:08.616Z,1.67
2023-04-13T19:21:35.343Z,1.07
2023-04-13T19:24:02.198Z,2.90
2023-04-13T19:26:29.518Z,1.37
2023-04-13T19:28:56.181Z,1.50
2023-04-13T19:31:23.230Z,1.50
2023-04-13T19:33:51.533Z,2.30
2023-04-13T19:36:18.239Z,2.30
2023-04-13T19:38:45.368Z,2.23
2023-04-13T19:41:12.580Z,3.53
2023-04-13T19:43:40.749Z,1.43
2023-04-13T19:46:07.565Z,3.53
2023-04-13T19:48:34.517Z,2.03
2023-04-13T19:51:02.032Z,1.20
2023-04-13T19:53:28.826Z,1.30
2023-04-13T19:55:56.814Z,2.03
2023-04-13T19:58:23.442Z,1.03
2023-04-13T20:00:50.149Z,1.33
2023-04-13T20:03:20.269Z,1.27
2023-04-13T20:05:47.889Z,2.23
2023-04-13T20:08:16.031Z,3.27
2023-04-13T20:10:42.706Z,1.93
2023-04-13T20:13:10.302Z,3.80
2023-04-13T20:15:36.978Z,2.50
2023-04-13T20:18:07.052Z,1.97
2023-04-13T20:20:35.668Z,3.17
2023-04-13T20:23:02.370Z,2.30
2023-04-13T20:25:29.414Z,3.23
2023-04-13T20:27:56.168Z,2.87
2023-04-13T20:30:22.911Z,3.60
2023-04-13T20:32:49.544Z,2.30
2023-04-13T20:35:16.373Z,5.43
2023-04-13T20:37:43.009Z,2.47
2023-04-13T20:40:12.563Z,1.77
2023-04-13T20:42:41.921Z,2.10
2023-04-13T20:45:14.707Z,1.53
2023-04-13T20:47:42.624Z,4.53
2023-04-13T20:50:10.481Z,3.70
2023-04-13T20:52:37.094Z,3.60
2023-04-13T20:55:04.083Z,3.10
2023-04-13T20:57:31.107Z,4.63
2023-04-13T20:59:58.321Z,2.33
2023-04-13T21:02:25.140Z,2.13
2023-04-13T21:04:54.144Z,3.33
2023-04-13T21:07:22.270Z,3.20
2023-04-13T21:09:49.003Z,1.93
2023-04-13T21:12:17.037Z,3.73
2023-04-13T21:14:43.838Z,4.23
2023-04-13T21:17:10.537Z,1.60
2023-04-13T21:19:37.936Z,2.03
2023-04-13T21:22:04.740Z,3.60
2023-04-13T21:24:39.664Z,1.87
2023-04-13T21:27:06.567Z,1.90
2023-04-13T21:29:33.520Z,1.80
2023-04-13T21:32:01.501Z,1.33
2023-04-13T21:34:28.828Z,2.57
2023-04-13T21:36:55.586Z,1.47
2023-04-13T21:39:22.243Z,2.27
2023-04-13T21:41:48.922Z,3.53
2023-04-13T21:44:28.668Z,2.90
2023-04-13T21:46:58.666Z,2.03
2023-04-13T21:49:25.561Z,2.77
2023-04-13T21:51:52.234Z,3.80
2023-04-13T21:54:18.972Z,2.33
2023-04-13T21:56:46.049Z,3.67
2023-04-13T21:59:12.835Z,2.30
2023-04-13T22:01:39.501Z,2.83
2023-04-13T22:04:06.569Z,1.80
2023-04-13T22:06:33.569Z,4.07
2023-04-13T22:09:00.905Z,2.13
2023-04-13T22:11:27.917Z,2.97
2023-04-13T22:13:54.625Z,2.77
2023-04-13T22:16:21.289Z,3.40
2023-04-13T22:18:48.279Z,3.27
2023-04-13T22:21:14.953Z,2.20
2023-04-13T22:23:41.809Z,4.50
2023-04-13T22:26:08.505Z,2.87
2023-04-13T22:28:35.253Z,2.27
2023-04-13T22:31:06.965Z,2.50
2023-04-13T22:33:36.244Z,2.57
2023-04-13T22:36:07.384Z,2.03
2023-04-13T22:38:34.123Z,2.97
2023-04-13T22:41:05.425Z,5.00
2023-04-13T22:43:32.172Z,2.20
2023-04-13T22:45:59.740Z,5.53
2023-04-13T22:48:29.964Z,2.77
2023-04-13T22:50:58.017Z,4.37
2023-04-13T22:53:25.940Z,3.43
2023-04-13T22:55:53.484Z,3.83
2023-04-13T22:58:20.193Z,3.13
2023-04-13T23:00:49.841Z,4.07
2023-04-13T23:03:16.971Z,5.13
2023-04-13T23:05:43.766Z,3.93
2023-04-13T23:08:10.572Z,4.07
2023-04-13T23:10:37.327Z,2.50
2023-04-13T23:13:04.715Z,3.03
2023-04-13T23:15:31.433Z,3.10
2023-04-13T23:17:58.114Z,3.53
2023-04-13T23:20:27.228Z,2.50
2023-04-13T23:22:53.971Z,4.73
2023-04-13T23:25:20.706Z,6.90
2023-04-13T23:27:47.392Z,3.30
2023-04-13T23:30:14.107Z,3.87
2023-04-13T23:32:40.838Z,4.83
2023-04-13T23:35:08.272Z,5.67
2023-04-13T23:37:34.924Z,4.37
2023-04-13T23:40:01.584Z,3.90
2023-04-13T23:42:28.629Z,1.93
2023-04-13T23:44:55.382Z,2.97
2023-04-13T23:47:22.347Z,4.10
2023-04-13T23:49:50.731Z,2.40
2023-04-13T23:52:17.661Z,3.63
2023-04-13T23:54:44.364Z,3.47
2023-04-13T23:57:12.711Z,3.63
2023-04-13T23:59:39.712Z,9.77
